createdAt,value
2022-12-12T00:01:33.462Z,-2.05
2022-12-12T00:04:10.181Z,-2.03
2022-12-12T00:06:46.166Z,-2.03
2022-12-12T00:09:22.157Z,-2.01
2022-12-12T00:11:58.139Z,-2.00
2022-12-12T00:14:35.229Z,-1.98
2022-12-12T00:17:11.023Z,-1.97
2022-12-12T00:19:46.843Z,-1.95
2022-12-12T00:22:22.723Z,-1.95
2022-12-12T00:24:58.637Z,-1.94
2022-12-12T00:27:35.376Z,-1.91
2022-12-12T00:30:14.646Z,-1.92
2022-12-12T00:32:50.702Z,-1.92
2022-12-12T00:35:26.699Z,-1.91
2022-12-12T00:38:02.740Z,-1.90
2022-12-12T00:40:38.888Z,-1.90
2022-12-12T00:43:15.651Z,-1.90
2022-12-12T00:45:51.595Z,-1.91
2022-12-12T00:48:27.923Z,-1.91
2022-12-12T00:51:12.052Z,-1.90
2022-12-12T00:53:48.796Z,-1.89
2022-12-12T00:56:26.320Z,-1.90
2022-12-12T00:59:02.730Z,-1.90
2022-12-12T01:01:39.856Z,-1.90
2022-12-12T01:04:16.006Z,-1.89
2022-12-12T01:06:52.025Z,-1.89
2022-12-12T01:09:27.938Z,-1.90
2022-12-12T01:12:04.080Z,-1.91
2022-12-12T01:14:39.943Z,-1.91
2022-12-12T01:17:16.096Z,-1.91
2022-12-12T01:19:52.195Z,-1.90
2022-12-12T01:22:28.304Z,-1.91
2022-12-12T01:25:04.591Z,-1.92
2022-12-12T01:27:40.632Z,-1.91
2022-12-12T01:30:22.097Z,-1.91
2022-12-12T01:32:57.939Z,-1.92
2022-12-12T01:35:35.598Z,-1.92
2022-12-12T01:38:11.484Z,-1.92
2022-12-12T01:40:47.609Z,-1.90
2022-12-12T01:43:25.845Z,-1.90
2022-12-12T01:46:45.343Z,-1.89
2022-12-12T01:49:28.460Z,-1.89
2022-12-12T01:52:10.335Z,-1.88
2022-12-12T01:54:50.779Z,-1.86
2022-12-12T01:57:30.817Z,-1.86
2022-12-12T02:00:10.905Z,-1.85
2022-12-12T02:02:47.315Z,-1.85
2022-12-12T02:05:27.925Z,-1.87
2022-12-12T02:08:05.611Z,-1.88
2022-12-12T02:10:40.571Z,-1.90
2022-12-12T02:13:18.900Z,-1.91
2022-12-12T02:16:01.378Z,-1.92
2022-12-12T02:18:46.116Z,-1.93
2022-12-12T02:21:27.728Z,-1.94
2022-12-12T02:24:56.956Z,-1.94
2022-12-12T02:28:08.158Z,-1.93
2022-12-12T02:30:49.821Z,-1.94
2022-12-12T02:33:37.250Z,-1.94
2022-12-12T02:36:25.095Z,-1.93
2022-12-12T02:39:09.834Z,-1.92
2022-12-12T02:41:52.605Z,-1.92
2022-12-12T02:44:33.022Z,-1.94
2022-12-12T02:47:13.845Z,-1.95
2022-12-12T02:49:53.114Z,-1.98
2022-12-12T02:52:28.160Z,-1.99
2022-12-12T02:55:02.511Z,-2.01
2022-12-12T02:57:36.908Z,-2.02
2022-12-12T03:00:16.995Z,-2.03
2022-12-12T03:03:35.661Z,-2.04
2022-12-12T03:06:53.292Z,-2.05
2022-12-12T03:09:40.034Z,-2.04
2022-12-12T03:12:23.087Z,-2.04
2022-12-12T03:15:03.400Z,-2.04
2022-12-12T03:17:43.574Z,-2.04
2022-12-12T03:20:25.684Z,-2.06
2022-12-12T03:23:05.607Z,-2.06
2022-12-12T03:25:46.325Z,-2.07
2022-12-12T03:28:26.170Z,-2.07
2022-12-12T03:31:05.022Z,-2.06
2022-12-12T03:33:44.712Z,-2.05
2022-12-12T03:36:24.937Z,-2.06
2022-12-12T03:39:06.221Z,-2.06
2022-12-12T03:41:44.727Z,-2.07
2022-12-12T03:44:26.452Z,-2.08
2022-12-12T03:47:06.091Z,-2.10
2022-12-12T03:49:45.145Z,-2.11
2022-12-12T03:52:24.482Z,-2.12
2022-12-12T03:55:04.787Z,-2.12
2022-12-12T03:57:45.713Z,-2.13
2022-12-12T04:00:21.018Z,-2.14
2022-12-12T04:02:59.967Z,-2.16
2022-12-12T04:06:04.269Z,-2.18
2022-12-12T04:08:39.359Z,-2.19
2022-12-12T04:11:41.084Z,-2.21
2022-12-12T04:14:28.809Z,-2.21
2022-12-12T04:17:05.472Z,-2.21
2022-12-12T04:20:17.307Z,-2.21
2022-12-12T04:23:17.531Z,-2.19
2022-12-12T04:26:23.886Z,-2.16
2022-12-12T04:29:12.823Z,-2.15
2022-12-12T04:31:54.715Z,-2.14
2022-12-12T04:34:38.750Z,-2.16
2022-12-12T04:37:17.597Z,-2.18
2022-12-12T04:39:56.699Z,-2.17
2022-12-12T04:42:35.829Z,-2.17
2022-12-12T04:45:16.487Z,-2.17
2022-12-12T04:47:55.472Z,-2.15
2022-12-12T04:50:32.354Z,-2.14
2022-12-12T04:53:18.200Z,-2.14
2022-12-12T04:55:57.227Z,-2.15
2022-12-12T04:58:31.768Z,-2.17
2022-12-12T05:01:15.614Z,-2.19
2022-12-12T05:03:55.486Z,-2.16
2022-12-12T05:06:36.507Z,-2.13
2022-12-12T05:09:11.818Z,-2.11
2022-12-12T05:11:47.319Z,-2.12
2022-12-12T05:14:22.338Z,-2.13
2022-12-12T05:17:04.544Z,-2.15
2022-12-12T05:19:39.015Z,-2.15
2022-12-12T05:22:13.482Z,-2.15
2022-12-12T05:24:47.999Z,-2.16
2022-12-12T05:27:22.501Z,-2.18
2022-12-12T05:29:56.693Z,-2.18
2022-12-12T05:32:31.118Z,-2.18
2022-12-12T05:35:06.402Z,-2.18
2022-12-12T05:37:45.423Z,-2.18
2022-12-12T05:40:24.190Z,-2.18
2022-12-12T05:42:59.556Z,-2.17
2022-12-12T05:45:34.120Z,-2.17
2022-12-12T05:48:08.962Z,-2.18
2022-12-12T05:50:43.383Z,-2.18
2022-12-12T05:53:17.809Z,-2.16
2022-12-12T05:55:53.708Z,-2.17
2022-12-12T05:58:28.004Z,-2.19
2022-12-12T06:01:04.280Z,-2.13
2022-12-12T06:03:38.982Z,-1.89
2022-12-12T06:06:13.531Z,-1.87
2022-12-12T06:08:48.516Z,-1.93
2022-12-12T06:11:22.920Z,-2.03
2022-12-12T06:13:57.486Z,-2.10
2022-12-12T06:16:32.100Z,-2.11
2022-12-12T06:19:06.818Z,-2.09
2022-12-12T06:21:41.345Z,-2.09
2022-12-12T06:24:16.002Z,-2.08
2022-12-12T06:26:50.490Z,-2.07
2022-12-12T06:29:24.899Z,-2.06
2022-12-12T06:31:59.197Z,-2.05
2022-12-12T06:34:33.573Z,-2.04
2022-12-12T06:37:14.095Z,-2.04
2022-12-12T06:39:51.511Z,-2.03
2022-12-12T06:42:25.746Z,-2.02
2022-12-12T06:45:00.134Z,-2.02
2022-12-12T06:47:34.567Z,-2.01
2022-12-12T06:50:10.538Z,-2.00
2022-12-12T06:52:44.969Z,-1.99
2022-12-12T06:55:19.695Z,-1.98
2022-12-12T06:57:54.018Z,-1.96
2022-12-12T07:00:28.498Z,-1.93
2022-12-12T07:03:02.890Z,-1.92
2022-12-12T07:05:37.465Z,-1.91
2022-12-12T07:08:11.759Z,-1.89
2022-12-12T07:10:46.574Z,-1.88
2022-12-12T07:13:20.932Z,-1.88
2022-12-12T07:15:58.132Z,-1.87
2022-12-12T07:18:32.447Z,-1.84
2022-12-12T07:21:12.520Z,-1.80
2022-12-12T07:23:46.906Z,-1.77
2022-12-12T07:26:23.632Z,-1.68
2022-12-12T07:28:58.410Z,-1.46
2022-12-12T07:31:32.800Z,-1.43
2022-12-12T07:34:07.109Z,-1.45
2022-12-12T07:36:42.445Z,-1.27
2022-12-12T07:39:20.951Z,-0.64
2022-12-12T07:41:55.706Z,-0.56
2022-12-12T07:44:31.798Z,-0.61
2022-12-12T07:47:06.582Z,-0.39
2022-12-12T07:49:41.105Z,-0.16
2022-12-12T07:52:15.883Z,0.09
2022-12-12T07:54:50.252Z,0.04
2022-12-12T07:57:24.623Z,-0.15
2022-12-12T07:59:59.242Z,-0.34
2022-12-12T08:02:33.757Z,-0.47
2022-12-12T08:05:10.274Z,-0.54
2022-12-12T08:07:44.867Z,-0.61
2022-12-12T08:10:19.475Z,-0.70
2022-12-12T08:12:53.896Z,-0.79
2022-12-12T08:15:28.598Z,-0.86
2022-12-12T08:18:03.093Z,-0.90
2022-12-12T08:20:39.700Z,-0.90
2022-12-12T08:23:14.006Z,-0.91
2022-12-12T08:25:48.437Z,-0.91
2022-12-12T08:28:22.799Z,-0.88
2022-12-12T08:30:57.144Z,-0.86
2022-12-12T08:33:32.764Z,-0.84
2022-12-12T08:36:21.013Z,-0.84
2022-12-12T08:38:55.433Z,-0.83
2022-12-12T08:41:30.567Z,-0.82
2022-12-12T08:44:07.559Z,-0.78
2022-12-12T08:46:42.123Z,-0.73
2022-12-12T08:49:16.792Z,-0.68
2022-12-12T08:51:51.598Z,-0.65
2022-12-12T08:54:25.866Z,-0.60
2022-12-12T08:57:00.291Z,-0.55
2022-12-12T08:59:34.912Z,-0.49
2022-12-12T09:02:10.623Z,-0.40
2022-12-12T09:04:45.148Z,-0.32
2022-12-12T09:07:20.109Z,-0.27
2022-12-12T09:09:54.602Z,-0.22
2022-12-12T09:12:29.021Z,-0.17
2022-12-12T09:15:03.506Z,-0.16
2022-12-12T09:17:37.851Z,-0.12
2022-12-12T09:20:13.800Z,-0.10
2022-12-12T09:22:48.407Z,-0.06
2022-12-12T09:25:23.000Z,-0.01
2022-12-12T09:27:57.495Z,0.03
2022-12-12T09:30:31.841Z,0.04
2022-12-12T09:33:06.330Z,0.07
2022-12-12T09:35:41.046Z,0.10
2022-12-12T09:38:15.485Z,0.13
2022-12-12T09:40:55.354Z,0.17
2022-12-12T09:43:38.671Z,0.20
2022-12-12T09:46:21.990Z,0.21
2022-12-12T09:49:03.304Z,0.24
2022-12-12T09:51:38.223Z,0.30
2022-12-12T09:54:16.514Z,0.35
2022-12-12T09:57:06.080Z,0.41
2022-12-12T09:59:49.747Z,0.55
2022-12-12T10:02:55.147Z,0.67
2022-12-12T10:05:39.389Z,0.79
2022-12-12T10:08:23.389Z,0.87
2022-12-12T10:11:07.207Z,0.90
2022-12-12T10:13:42.027Z,0.95
2022-12-12T10:16:17.858Z,0.98
2022-12-12T10:18:55.884Z,1.00
2022-12-12T10:21:32.850Z,1.04
2022-12-12T10:24:17.221Z,1.08
2022-12-12T10:26:51.520Z,1.13
2022-12-12T10:29:28.575Z,1.20
2022-12-12T10:32:16.989Z,1.24
2022-12-12T10:35:14.964Z,1.25
2022-12-12T10:38:05.621Z,1.27
2022-12-12T10:40:56.424Z,1.25
2022-12-12T10:43:35.891Z,1.25
2022-12-12T10:46:29.529Z,1.21
2022-12-12T10:49:07.775Z,1.17
2022-12-12T10:51:42.565Z,1.13
2022-12-12T10:54:22.628Z,1.11
2022-12-12T10:57:19.908Z,1.07
2022-12-12T10:59:57.386Z,1.07
2022-12-12T11:02:39.359Z,1.03
2022-12-12T11:05:25.272Z,0.95
2022-12-12T11:08:07.484Z,0.85
2022-12-12T11:10:41.981Z,0.77
2022-12-12T11:13:19.909Z,0.72
2022-12-12T11:16:01.987Z,0.69
2022-12-12T11:18:36.553Z,0.63
2022-12-12T11:21:14.067Z,0.55
2022-12-12T11:23:56.462Z,0.50
2022-12-12T11:26:31.440Z,0.44
2022-12-12T11:29:06.849Z,0.38
2022-12-12T11:31:44.217Z,0.32
2022-12-12T11:34:18.689Z,0.26
2022-12-12T11:36:54.879Z,0.22
2022-12-12T11:39:34.213Z,0.23
2022-12-12T11:42:21.249Z,0.23
2022-12-12T11:45:05.890Z,0.24
2022-12-12T11:47:45.937Z,0.25
2022-12-12T11:50:25.401Z,0.24
2022-12-12T11:53:01.722Z,0.23
2022-12-12T11:55:47.304Z,0.22
2022-12-12T11:58:28.014Z,0.19
2022-12-12T12:01:08.347Z,0.19
2022-12-12T12:04:09.020Z,0.19
2022-12-12T12:07:00.655Z,0.18
2022-12-12T12:09:46.298Z,0.17
2022-12-12T12:12:27.720Z,0.13
2022-12-12T12:15:27.422Z,0.08
2022-12-12T12:18:29.257Z,0.03
2022-12-12T12:21:30.112Z,0.01
2022-12-12T12:24:29.270Z,0.02
2022-12-12T12:27:12.060Z,0.01
2022-12-12T12:30:11.278Z,0.01
2022-12-12T12:33:03.434Z,-0.02
2022-12-12T12:35:50.777Z,-0.04
2022-12-12T12:38:47.552Z,-0.04
2022-12-12T12:41:40.422Z,-0.03
2022-12-12T12:44:31.449Z,-0.04
2022-12-12T12:47:22.697Z,-0.09
2022-12-12T12:50:01.397Z,-0.10
2022-12-12T12:52:42.522Z,-0.13
2022-12-12T12:55:22.236Z,-0.16
2022-12-12T12:57:56.921Z,-0.17
2022-12-12T13:00:33.145Z,-0.21
2022-12-12T13:03:17.409Z,-0.23
2022-12-12T13:05:55.912Z,-0.26
2022-12-12T13:08:43.640Z,-0.26
2022-12-12T13:11:23.850Z,-0.27
2022-12-12T13:14:07.499Z,-0.25
2022-12-12T13:16:43.040Z,-0.23
2022-12-12T13:19:29.335Z,-0.21
2022-12-12T13:22:09.125Z,-0.23
2022-12-12T13:24:59.445Z,-0.27
2022-12-12T13:27:45.824Z,-0.31
2022-12-12T13:30:26.307Z,-0.36
2022-12-12T13:33:25.327Z,-0.39
2022-12-12T13:36:09.236Z,-0.43
2022-12-12T13:38:50.478Z,-0.46
2022-12-12T13:41:25.275Z,-0.51
2022-12-12T13:44:02.919Z,-0.58
2022-12-12T13:46:47.640Z,-0.63
2022-12-12T13:49:42.436Z,-0.68
2022-12-12T13:52:34.853Z,-0.75
2022-12-12T13:55:27.710Z,-0.80
2022-12-12T13:58:33.504Z,-0.83
2022-12-12T14:01:40.483Z,-0.88
2022-12-12T14:04:30.973Z,-0.92
2022-12-12T14:07:16.658Z,-0.95
2022-12-12T14:09:55.790Z,-0.98
2022-12-12T14:12:35.016Z,-1.01
2022-12-12T14:15:22.566Z,-1.02
2022-12-12T14:18:01.895Z,-1.05
2022-12-12T14:20:39.770Z,-1.06
2022-12-12T14:23:31.623Z,-1.08
2022-12-12T14:26:43.251Z,-1.11
2022-12-12T14:29:33.052Z,-1.13
2022-12-12T14:32:34.754Z,-1.16
2022-12-12T14:35:31.071Z,-1.18
2022-12-12T14:38:22.390Z,-1.18
2022-12-12T14:41:06.635Z,-1.20
2022-12-12T14:44:37.462Z,-1.22
2022-12-12T14:46:45.536Z,-1.24
2022-12-12T14:49:21.328Z,-1.27
2022-12-12T14:51:59.044Z,-1.30
2022-12-12T14:54:33.649Z,-1.32
2022-12-12T14:57:10.563Z,-1.34
2022-12-12T14:59:45.966Z,-1.35
2022-12-12T15:02:26.037Z,-1.35
2022-12-12T15:05:04.933Z,-1.35
2022-12-12T15:07:40.683Z,-1.35
2022-12-12T15:10:28.440Z,-1.36
2022-12-12T15:13:02.930Z,-1.37
2022-12-12T15:15:37.618Z,-1.37
2022-12-12T15:18:15.957Z,-1.37
2022-12-12T15:20:50.614Z,-1.37
2022-12-12T15:23:25.320Z,-1.37
2022-12-12T15:26:03.177Z,-1.37
2022-12-12T15:28:38.110Z,-1.37
2022-12-12T15:31:17.270Z,-1.36
2022-12-12T15:33:52.329Z,-1.36
2022-12-12T15:36:32.019Z,-1.37
2022-12-12T15:39:17.388Z,-1.37
2022-12-12T15:41:52.576Z,-1.36
2022-12-12T15:44:27.378Z,-1.36
2022-12-12T15:47:02.203Z,-1.37
2022-12-12T15:49:45.164Z,-1.37
2022-12-12T15:52:26.969Z,-1.36
2022-12-12T15:55:05.204Z,-1.37
2022-12-12T15:57:49.932Z,-1.36
2022-12-12T16:00:38.924Z,-1.36
2022-12-12T16:03:26.283Z,-1.36
2022-12-12T16:06:16.151Z,-1.35
2022-12-12T16:09:01.750Z,-1.34
2022-12-12T16:11:48.219Z,-1.34
2022-12-12T16:14:40.170Z,-1.35
2022-12-12T16:17:21.756Z,-1.35
2022-12-12T16:20:02.958Z,-1.35
2022-12-12T16:22:40.579Z,-1.35
2022-12-12T16:25:21.394Z,-1.35
2022-12-12T16:28:02.205Z,-1.35
2022-12-12T16:30:38.230Z,-1.35
2022-12-12T16:33:26.651Z,-1.36
2022-12-12T16:36:03.170Z,-1.35
2022-12-12T16:38:40.203Z,-1.35
2022-12-12T16:41:18.539Z,-1.35
2022-12-12T16:43:52.879Z,-1.33
2022-12-12T16:46:28.193Z,-1.31
2022-12-12T16:49:04.736Z,-1.29
2022-12-12T16:51:42.318Z,-1.27
2022-12-12T16:54:20.209Z,-1.25
2022-12-12T16:56:54.952Z,-1.22
2022-12-12T16:59:29.745Z,-1.21
2022-12-12T17:02:04.758Z,-1.19
2022-12-12T17:04:39.240Z,-1.16
2022-12-12T17:07:14.054Z,-1.14
2022-12-12T17:09:48.361Z,-1.11
2022-12-12T17:12:22.715Z,-1.10
2022-12-12T17:14:57.256Z,-1.07
2022-12-12T17:17:31.847Z,-1.05
2022-12-12T17:20:08.032Z,-1.05
2022-12-12T17:22:42.885Z,-1.03
2022-12-12T17:25:17.909Z,-1.02
2022-12-12T17:27:54.107Z,-1.01
2022-12-12T17:30:28.600Z,-1.00
2022-12-12T17:33:19.576Z,-0.99
2022-12-12T17:36:04.127Z,-0.99
2022-12-12T17:38:38.600Z,-0.99
2022-12-12T17:41:13.030Z,-0.98
2022-12-12T17:43:52.071Z,-0.98
2022-12-12T17:46:29.998Z,-0.97
2022-12-12T17:49:04.824Z,-0.96
2022-12-12T17:51:39.269Z,-0.97
2022-12-12T17:54:14.025Z,-0.97
2022-12-12T17:56:48.972Z,-0.97
2022-12-12T17:59:23.448Z,-0.98
2022-12-12T18:01:57.951Z,-0.97
2022-12-12T18:04:37.053Z,-0.98
2022-12-12T18:07:11.558Z,-0.97
2022-12-12T18:09:46.001Z,-0.96
2022-12-12T18:12:20.391Z,-0.96
2022-12-12T18:14:57.345Z,-0.96
2022-12-12T18:17:31.914Z,-0.96
2022-12-12T18:20:10.350Z,-0.97
2022-12-12T18:22:47.074Z,-0.98
2022-12-12T18:25:22.135Z,-0.97
2022-12-12T18:27:56.665Z,-0.98
2022-12-12T18:30:32.153Z,-0.98
2022-12-12T18:33:06.683Z,-0.99
2022-12-12T18:35:41.204Z,-0.99
2022-12-12T18:38:16.886Z,-0.99
2022-12-12T18:40:53.117Z,-0.98
2022-12-12T18:43:28.252Z,-0.98
2022-12-12T18:46:07.184Z,-0.96
2022-12-12T18:48:44.686Z,-0.95
2022-12-12T18:51:22.453Z,-0.94
2022-12-12T18:54:01.853Z,-0.93
2022-12-12T18:56:36.921Z,-0.92
2022-12-12T18:59:11.408Z,-0.91
2022-12-12T19:01:45.894Z,-0.90
2022-12-12T19:04:23.441Z,-0.89
2022-12-12T19:06:59.218Z,-0.88
2022-12-12T19:09:33.589Z,-0.87
2022-12-12T19:12:09.412Z,-0.87
2022-12-12T19:15:16.435Z,-0.86
2022-12-12T19:17:38.924Z,-0.86
2022-12-12T19:20:14.925Z,-0.84
2022-12-12T19:22:49.405Z,-0.83
2022-12-12T19:25:24.140Z,-0.81
2022-12-12T19:27:59.162Z,-0.80
2022-12-12T19:30:38.656Z,-0.78
2022-12-12T19:33:13.230Z,-0.76
2022-12-12T19:35:47.859Z,-0.75
2022-12-12T19:38:24.572Z,-0.72
2022-12-12T19:41:03.371Z,-0.70
2022-12-12T19:43:37.891Z,-0.68
2022-12-12T19:46:15.551Z,-0.66
2022-12-12T19:48:54.276Z,-0.63
2022-12-12T19:51:32.714Z,-0.61
2022-12-12T19:54:13.579Z,-0.57
2022-12-12T19:56:48.420Z,-0.55
2022-12-12T19:59:22.855Z,-0.53
2022-12-12T20:01:58.102Z,-0.51
2022-12-12T20:04:32.678Z,-0.49
2022-12-12T20:07:06.991Z,-0.47
2022-12-12T20:09:41.448Z,-0.46
2022-12-12T20:12:15.992Z,-0.43
2022-12-12T20:14:51.031Z,-0.41
2022-12-12T20:17:26.350Z,-0.40
2022-12-12T20:20:00.735Z,-0.37
2022-12-12T20:22:35.141Z,-0.35
2022-12-12T20:25:11.321Z,-0.33
2022-12-12T20:27:45.770Z,-0.31
2022-12-12T20:30:20.403Z,-0.30
2022-12-12T20:32:55.016Z,-0.28
2022-12-12T20:35:29.572Z,-0.26
2022-12-12T20:38:04.065Z,-0.23
2022-12-12T20:40:41.886Z,-0.21
2022-12-12T20:43:16.277Z,-0.19
2022-12-12T20:45:51.039Z,-0.16
2022-12-12T20:48:25.779Z,-0.13
2022-12-12T20:51:03.041Z,-0.11
2022-12-12T20:53:38.423Z,-0.10
2022-12-12T20:56:15.788Z,-0.07
2022-12-12T20:58:52.950Z,-0.04
2022-12-12T21:01:29.874Z,-0.03
2022-12-12T21:04:06.369Z,-0.02
2022-12-12T21:06:44.757Z,-0.01
2022-12-12T21:09:24.906Z,0.01
2022-12-12T21:12:03.771Z,0.02
2022-12-12T21:14:39.004Z,0.05
2022-12-12T21:17:13.641Z,0.05
2022-12-12T21:19:47.970Z,0.06
2022-12-12T21:22:22.356Z,0.07
2022-12-12T21:24:56.760Z,0.07
2022-12-12T21:27:31.739Z,0.06
2022-12-12T21:30:07.018Z,0.07
2022-12-12T21:32:41.497Z,0.07
2022-12-12T21:35:16.552Z,0.07
2022-12-12T21:37:51.268Z,0.07
2022-12-12T21:40:25.615Z,0.07
2022-12-12T21:43:00.094Z,0.07
2022-12-12T21:45:37.484Z,0.08
2022-12-12T21:48:12.217Z,0.07
2022-12-12T21:50:46.591Z,0.08
2022-12-12T21:53:36.245Z,0.08
2022-12-12T21:56:13.223Z,0.08
2022-12-12T21:58:49.061Z,0.08
2022-12-12T22:01:24.784Z,0.09
2022-12-12T22:03:59.170Z,0.09
2022-12-12T22:06:35.419Z,0.09
2022-12-12T22:09:12.464Z,0.08
2022-12-12T22:11:50.819Z,0.06
2022-12-12T22:14:27.356Z,0.06
2022-12-12T22:17:02.296Z,0.07
2022-12-12T22:19:36.673Z,0.05
2022-12-12T22:22:10.932Z,0.04
2022-12-12T22:24:45.212Z,0.03
2022-12-12T22:27:19.569Z,0.01
2022-12-12T22:29:54.017Z,-0.01
2022-12-12T22:32:30.526Z,-0.02
2022-12-12T22:35:05.207Z,-0.03
2022-12-12T22:37:39.610Z,-0.04
2022-12-12T22:40:15.518Z,-0.04
2022-12-12T22:42:49.886Z,-0.05
2022-12-12T22:45:24.415Z,-0.07
2022-12-12T22:47:58.731Z,-0.10
2022-12-12T22:50:33.023Z,-0.12
2022-12-12T22:53:07.446Z,-0.13
2022-12-12T22:55:42.700Z,-0.14
2022-12-12T22:58:17.185Z,-0.17
2022-12-12T23:00:51.651Z,-0.20
2022-12-12T23:03:26.079Z,-0.24
2022-12-12T23:06:09.487Z,-0.25
2022-12-12T23:08:45.364Z,-0.28
2022-12-12T23:11:21.927Z,-0.31
2022-12-12T23:14:00.430Z,-0.33
2022-12-12T23:16:35.684Z,-0.35
2022-12-12T23:19:17.344Z,-0.36
2022-12-12T23:21:52.005Z,-0.36
2022-12-12T23:24:26.971Z,-0.37
2022-12-12T23:27:01.249Z,-0.39
2022-12-12T23:29:35.676Z,-0.42
2022-12-12T23:32:10.381Z,-0.43
2022-12-12T23:34:45.542Z,-0.44
2022-12-12T23:37:20.016Z,-0.47
2022-12-12T23:39:55.451Z,-0.50
2022-12-12T23:42:31.115Z,-0.51
2022-12-12T23:45:06.102Z,-0.53
2022-12-12T23:47:40.503Z,-0.56
2022-12-12T23:50:14.866Z,-0.57
2022-12-12T23:52:49.270Z,-0.58
2022-12-12T23:55:23.987Z,-0.60
2022-12-12T23:57:58.507Z,-0.63
